Terminal Aerodrome Forecast
Issued by NWS Jackson, MS

Home | Current Version | Previous Version | Text Only | Print | Product List | Glossary On
Versions: 1 2 3 4 5 6 7 8 9 10 11 12 13 14
000
FTUS44 KJAN 231700
TAFJAN
TAF
KJAN 231723Z 2318/2418 08004KT P6SM VCTS SCT035CB BKN100
     FM240300 00000KT 5SM BR SCT100 BKN250
     FM241300 29004KT P6SM SCT250=

USA.gov is the U.S. government's official web portal to all federal, state and local government web resources and services.